createdAt,value
2023-05-25T00:01:20.798Z,25.92
2023-05-25T00:11:06.229Z,29.70
2023-05-25T00:13:32.949Z,26.42
2023-05-25T00:15:59.680Z,24.20
2023-05-25T00:18:27.259Z,27.83
2023-05-25T00:20:57.167Z,25.90
2023-05-25T00:23:23.874Z,25.27
2023-05-25T00:25:50.584Z,20.20
2023-05-25T00:28:17.302Z,30.75
2023-05-25T00:38:01.446Z,26.17
2023-05-25T00:40:28.296Z,33.58
2023-05-25T00:42:56.208Z,23.60
2023-05-25T00:47:51.310Z,27.75
2023-05-25T00:50:23.029Z,24.35
2023-05-25T00:52:50.448Z,20.42
2023-05-25T00:57:48.262Z,25.65
2023-05-25T01:00:15.871Z,28.75
2023-05-25T01:02:45.235Z,29.08
2023-05-25T01:05:12.525Z,25.58
2023-05-25T01:07:39.468Z,29.90
2023-05-25T01:10:07.120Z,33.55
2023-05-25T01:12:36.681Z,27.92
2023-05-25T01:15:04.197Z,23.65
2023-05-25T01:20:09.744Z,23.85
2023-05-25T01:22:38.538Z,28.70
2023-05-25T01:25:10.585Z,23.13
2023-05-25T01:27:40.568Z,26.95
2023-05-25T01:32:37.532Z,27.95
2023-05-25T01:35:04.990Z,28.90
2023-05-25T01:37:33.226Z,28.15
2023-05-25T01:39:59.931Z,25.92
2023-05-25T01:42:26.593Z,29.80
2023-05-25T01:47:18.783Z,23.42
2023-05-25T01:50:04.694Z,26.60
2023-05-25T01:52:36.111Z,34.55
2023-05-25T01:55:06.470Z,23.67
2023-05-25T01:57:35.874Z,25.25
2023-05-25T02:00:03.389Z,32.95
2023-05-25T02:02:42.004Z,30.48
2023-05-25T02:05:09.379Z,28.70
2023-05-25T02:07:36.377Z,31.50
2023-05-25T02:10:03.382Z,32.60
2023-05-25T02:12:30.091Z,27.98
2023-05-25T02:14:56.903Z,33.42
2023-05-25T02:17:28.219Z,36.05
2023-05-25T02:19:55.144Z,35.20
2023-05-25T02:22:22.504Z,34.40
2023-05-25T02:24:49.347Z,25.92
2023-05-25T02:27:16.095Z,31.58
2023-05-25T02:29:42.825Z,26.13
2023-05-25T02:34:34.943Z,28.30
2023-05-25T02:37:01.758Z,26.52
2023-05-25T02:41:54.455Z,27.45
2023-05-25T02:44:22.199Z,38.38
2023-05-25T02:46:48.943Z,36.30
2023-05-25T02:49:16.314Z,31.42
2023-05-25T02:51:43.014Z,36.95
2023-05-25T02:59:00.630Z,31.42
2023-05-25T03:01:31.901Z,41.90
2023-05-25T03:03:58.810Z,32.45
2023-05-25T03:06:26.773Z,31.75
2023-05-25T03:18:36.269Z,48.25
2023-05-25T03:21:03.108Z,32.55
2023-05-25T03:23:31.186Z,42.47
2023-05-25T03:26:00.212Z,32.10
2023-05-25T03:28:27.235Z,45.53
2023-05-25T03:35:44.964Z,47.80
2023-05-25T03:38:12.121Z,40.22
2023-05-25T03:40:39.008Z,43.80
2023-05-25T03:43:05.749Z,42.75
2023-05-25T03:45:32.705Z,55.38
2023-05-25T03:52:50.293Z,52.17
2023-05-25T03:55:17.163Z,48.60
2023-05-25T03:57:44.761Z,42.78
2023-05-25T04:00:11.718Z,54.05
2023-05-25T04:02:38.569Z,60.15
2023-05-25T04:05:05.747Z,62.78
2023-05-25T04:07:32.468Z,55.08
2023-05-25T04:09:59.851Z,52.42
2023-05-25T04:12:27.536Z,59.45
2023-05-25T04:14:54.182Z,57.08
2023-05-25T04:17:24.983Z,60.15
2023-05-25T04:19:52.870Z,62.72
2023-05-25T04:22:20.228Z,68.93
2023-05-25T04:29:40.295Z,58.22
2023-05-25T04:37:29.210Z,65.97
2023-05-25T04:39:58.629Z,63.05
2023-05-25T04:44:53.424Z,61.92
2023-05-25T04:47:20.328Z,54.70
2023-05-25T04:52:12.580Z,52.85
2023-05-25T04:54:39.447Z,49.08
2023-05-25T04:59:33.379Z,52.38
2023-05-25T05:02:00.549Z,46.58
2023-05-25T05:04:27.430Z,39.45
2023-05-25T05:06:56.143Z,43.63
2023-05-25T05:09:25.268Z,42.42
2023-05-25T05:16:45.246Z,41.88
2023-05-25T05:19:12.187Z,41.38
2023-05-25T05:21:39.272Z,41.10
2023-05-25T05:24:06.160Z,40.22
2023-05-25T05:26:44.160Z,37.10
2023-05-25T05:29:20.594Z,35.63
2023-05-25T05:41:29.431Z,31.35
2023-05-25T05:43:58.363Z,31.52
2023-05-25T05:46:25.187Z,38.25
2023-05-25T05:48:51.856Z,30.98
2023-05-25T05:51:18.638Z,35.97
2023-05-25T05:53:45.508Z,32.83
2023-05-25T05:56:18.858Z,37.95
2023-05-25T05:58:48.938Z,35.05
2023-05-25T06:08:35.955Z,36.20
2023-05-25T06:23:12.562Z,29.05
2023-05-25T06:25:39.527Z,26.08
2023-05-25T06:28:06.713Z,26.48
2023-05-25T06:30:33.535Z,31.13
2023-05-25T06:33:01.503Z,22.80
2023-05-25T06:35:29.507Z,22.63
2023-05-25T06:40:22.950Z,27.77
2023-05-25T06:42:50.503Z,25.90
2023-05-25T06:45:37.439Z,23.55
2023-05-25T06:48:04.859Z,26.02
2023-05-25T06:50:31.688Z,25.85
2023-05-25T06:57:50.522Z,23.65
2023-05-25T07:02:42.960Z,25.13
2023-05-25T07:05:09.920Z,25.88
2023-05-25T07:07:36.709Z,24.48
2023-05-25T07:10:05.745Z,26.30
2023-05-25T07:12:32.469Z,25.08
2023-05-25T07:22:53.558Z,24.10
2023-05-25T07:25:20.878Z,21.38
2023-05-25T07:32:46.682Z,23.95
2023-05-25T07:37:38.902Z,21.60
2023-05-25T07:40:06.281Z,21.90
2023-05-25T07:42:34.678Z,18.30
2023-05-25T07:45:01.621Z,23.65
2023-05-25T07:47:28.629Z,19.88
2023-05-25T07:52:20.841Z,21.05
2023-05-25T07:54:48.387Z,18.92
2023-05-25T07:57:15.148Z,19.42
2023-05-25T07:59:41.856Z,15.95
2023-05-25T08:02:08.673Z,17.85
2023-05-25T08:04:35.645Z,21.23
2023-05-25T08:07:02.802Z,24.15
2023-05-25T08:12:07.581Z,22.60
2023-05-25T08:14:34.798Z,20.13
2023-05-25T08:17:02.749Z,22.40
2023-05-25T08:19:31.623Z,20.17
2023-05-25T08:24:24.189Z,23.27
2023-05-25T08:26:54.762Z,22.30
2023-05-25T08:29:22.321Z,18.35
2023-05-25T08:31:49.924Z,16.92
2023-05-25T08:34:17.097Z,22.77
2023-05-25T08:42:12.557Z,14.23
2023-05-25T08:44:39.301Z,22.60
2023-05-25T08:47:07.296Z,22.23
2023-05-25T08:49:38.832Z,22.67
2023-05-25T08:52:06.889Z,24.00
2023-05-25T08:54:37.367Z,19.35
2023-05-25T08:57:22.606Z,19.80
2023-05-25T08:59:55.149Z,22.00
2023-05-25T09:02:21.934Z,22.85
2023-05-25T09:04:48.830Z,20.27
2023-05-25T09:07:16.030Z,18.27
2023-05-25T09:09:42.757Z,15.23
2023-05-25T09:12:09.730Z,17.27
2023-05-25T09:14:37.929Z,18.08
2023-05-25T09:17:04.776Z,20.42
2023-05-25T09:26:54.438Z,20.25
2023-05-25T09:29:24.272Z,15.45
2023-05-25T09:31:51.222Z,18.88
2023-05-25T09:34:18.035Z,28.05
2023-05-25T09:36:44.914Z,15.73
2023-05-25T09:39:12.601Z,23.38
2023-05-25T09:44:11.542Z,19.48
2023-05-25T09:46:39.419Z,23.60
2023-05-25T09:54:03.643Z,9.43
2023-05-25T09:56:32.138Z,18.30
2023-05-25T09:58:58.949Z,18.38
2023-05-25T10:01:27.356Z,24.42
2023-05-25T10:04:04.347Z,15.60
2023-05-25T10:08:58.847Z,17.45
2023-05-25T10:11:29.385Z,15.23
2023-05-25T10:19:09.272Z,17.88
2023-05-25T10:21:38.043Z,17.48
2023-05-25T10:29:19.159Z,20.25
2023-05-25T10:31:46.186Z,20.08
2023-05-25T10:34:13.224Z,22.92
2023-05-25T10:36:41.060Z,19.38
2023-05-25T10:39:09.340Z,16.83
2023-05-25T10:48:53.514Z,17.63
2023-05-25T10:51:20.825Z,38.53
2023-05-25T10:53:52.373Z,19.75
2023-05-25T10:56:19.156Z,21.30
2023-05-25T10:58:46.696Z,16.80
2023-05-25T11:01:14.537Z,21.02
2023-05-25T11:03:47.568Z,10.95
2023-05-25T11:06:18.537Z,19.50
2023-05-25T11:11:21.102Z,14.65
2023-05-25T11:13:49.420Z,12.52
2023-05-25T11:18:43.961Z,22.42
2023-05-25T11:21:14.403Z,11.60
2023-05-25T11:23:54.260Z,16.25
2023-05-25T11:26:22.737Z,20.30
2023-05-25T11:28:51.320Z,19.00
2023-05-25T11:33:45.381Z,23.60
2023-05-25T11:36:12.972Z,23.80
2023-05-25T11:38:53.173Z,17.80
2023-05-25T11:41:29.368Z,16.42
2023-05-25T11:46:22.759Z,20.60
2023-05-25T11:48:54.762Z,15.65
2023-05-25T11:51:22.120Z,21.80
2023-05-25T11:53:48.933Z,14.20
2023-05-25T11:56:30.764Z,18.25
2023-05-25T12:01:27.493Z,9.98
2023-05-25T12:03:57.043Z,10.95
2023-05-25T12:06:25.706Z,17.00
2023-05-25T12:08:52.700Z,11.80
2023-05-25T12:11:27.282Z,19.70
2023-05-25T12:13:54.275Z,17.55
2023-05-25T12:16:21.371Z,18.02
2023-05-25T12:21:23.457Z,19.67
2023-05-25T12:23:51.015Z,7.55
2023-05-25T12:26:19.001Z,14.38
2023-05-25T12:34:03.770Z,11.52
2023-05-25T12:36:40.719Z,11.18
2023-05-25T12:42:02.771Z,17.27
2023-05-25T12:44:31.673Z,13.43
2023-05-25T12:52:11.372Z,15.82
2023-05-25T12:57:12.259Z,11.48
2023-05-25T13:04:48.419Z,16.92
2023-05-25T13:07:16.056Z,17.00
2023-05-25T13:10:10.810Z,15.27
2023-05-25T13:12:37.680Z,26.05
2023-05-25T13:15:04.595Z,22.27
2023-05-25T13:17:31.449Z,17.67
2023-05-25T13:24:49.109Z,15.45
2023-05-25T13:27:15.929Z,14.93
2023-05-25T13:29:42.657Z,17.83
2023-05-25T13:32:10.328Z,21.60
2023-05-25T13:34:37.050Z,15.48
2023-05-25T13:37:03.748Z,16.83
2023-05-25T13:39:30.638Z,21.75
2023-05-25T13:41:57.522Z,21.83
2023-05-25T13:46:49.869Z,18.35
2023-05-25T13:49:19.790Z,13.90
2023-05-25T13:54:13.173Z,13.77
2023-05-25T13:57:29.972Z,21.80
2023-05-25T13:59:56.681Z,19.58
2023-05-25T14:02:23.466Z,18.13
2023-05-25T14:04:50.214Z,16.88
2023-05-25T14:09:42.859Z,23.90
2023-05-25T14:12:09.803Z,20.13
2023-05-25T14:17:02.463Z,16.15
2023-05-25T14:19:29.255Z,19.42
2023-05-25T14:22:11.720Z,21.48
2023-05-25T14:24:39.808Z,12.02
2023-05-25T14:27:07.385Z,18.60
2023-05-25T14:29:34.733Z,14.20
2023-05-25T14:32:01.779Z,14.55
2023-05-25T14:36:55.029Z,16.55
2023-05-25T14:39:21.738Z,17.10
2023-05-25T14:44:13.824Z,15.07
2023-05-25T14:46:40.582Z,26.23
2023-05-25T14:49:07.274Z,21.80
2023-05-25T14:56:25.927Z,18.38
2023-05-25T14:58:52.708Z,21.67
2023-05-25T15:01:19.780Z,15.38
2023-05-25T15:03:46.894Z,16.33
2023-05-25T15:06:13.641Z,10.82
2023-05-25T15:08:40.518Z,10.55
2023-05-25T15:11:10.068Z,15.18
2023-05-25T15:13:37.201Z,17.50
2023-05-25T15:16:04.181Z,23.80
2023-05-25T15:18:30.940Z,19.17
2023-05-25T15:20:58.231Z,19.30
2023-05-25T15:23:24.941Z,13.30
2023-05-25T15:28:17.130Z,11.15
2023-05-25T15:30:43.817Z,14.75
2023-05-25T15:35:36.710Z,22.25
2023-05-25T15:38:03.621Z,19.27
2023-05-25T15:40:30.802Z,17.20
2023-05-25T15:42:57.560Z,9.27
2023-05-25T15:45:25.094Z,20.95
2023-05-25T15:50:17.301Z,11.98
2023-05-25T15:55:24.693Z,16.50
2023-05-25T15:57:51.408Z,10.23
2023-05-25T16:00:18.252Z,12.50
2023-05-25T16:07:36.209Z,14.48
2023-05-25T16:10:03.018Z,24.15
2023-05-25T16:12:29.877Z,17.27
2023-05-25T16:14:56.652Z,18.80
2023-05-25T16:17:23.412Z,24.83
2023-05-25T16:19:53.123Z,15.02
2023-05-25T16:22:19.852Z,15.15
2023-05-25T16:27:23.127Z,22.17
2023-05-25T16:29:51.277Z,22.88
2023-05-25T16:32:18.023Z,20.90
2023-05-25T16:34:44.709Z,19.52
2023-05-25T16:37:11.539Z,14.35
2023-05-25T16:51:46.426Z,15.50
2023-05-25T17:03:58.085Z,20.05
2023-05-25T17:16:44.260Z,24.48
2023-05-25T17:24:02.327Z,15.48
2023-05-25T17:26:29.161Z,17.88
2023-05-25T17:28:57.904Z,13.55
2023-05-25T17:31:24.713Z,17.08
2023-05-25T17:36:17.003Z,15.57
2023-05-25T17:38:46.551Z,16.88
2023-05-25T17:41:13.292Z,15.63
2023-05-25T17:43:40.009Z,18.73
2023-05-25T17:46:06.819Z,16.30
2023-05-25T17:55:52.780Z,17.60
2023-05-25T17:58:19.430Z,13.57
2023-05-25T18:00:46.265Z,15.82
2023-05-25T18:10:30.761Z,12.52
2023-05-25T18:12:57.508Z,20.60
2023-05-25T18:15:24.169Z,19.42
2023-05-25T18:17:51.069Z,17.30
2023-05-25T18:20:17.795Z,13.70
2023-05-25T18:22:44.499Z,17.30
2023-05-25T18:25:13.688Z,18.50
2023-05-25T18:27:40.394Z,22.85
2023-05-25T18:30:07.502Z,18.77
2023-05-25T18:34:59.884Z,14.55
2023-05-25T18:37:29.280Z,17.25
2023-05-25T18:39:55.987Z,15.73
2023-05-25T18:42:23.437Z,17.85
2023-05-25T18:44:50.155Z,15.82
2023-05-25T18:47:17.047Z,21.45
2023-05-25T18:49:44.639Z,14.55
2023-05-25T18:52:11.294Z,21.02
2023-05-25T18:54:39.449Z,20.88
2023-05-25T18:57:07.294Z,19.25
2023-05-25T18:59:35.275Z,20.83
2023-05-25T19:02:02.062Z,25.52
2023-05-25T19:04:28.983Z,19.70
2023-05-25T19:06:55.824Z,19.05
2023-05-25T19:09:22.546Z,22.42
2023-05-25T19:11:49.305Z,13.40
2023-05-25T19:14:16.147Z,25.25
2023-05-25T19:16:42.882Z,23.73
2023-05-25T19:19:09.631Z,20.48
2023-05-25T19:21:36.627Z,29.38
2023-05-25T19:43:36.287Z,21.60
2023-05-25T19:46:03.502Z,17.17
2023-05-25T19:48:30.254Z,20.67
2023-05-25T19:50:58.118Z,14.82
2023-05-25T19:53:24.982Z,34.38
2023-05-25T19:55:51.694Z,23.27
2023-05-25T19:58:18.458Z,22.48
2023-05-25T20:00:45.274Z,24.25
2023-05-25T20:03:12.193Z,23.70
2023-05-25T20:05:40.160Z,24.30
2023-05-25T20:11:28.680Z,28.90
2023-05-25T20:13:56.400Z,29.08
2023-05-25T20:16:24.981Z,31.75
2023-05-25T20:18:51.813Z,28.77
2023-05-25T20:21:19.726Z,26.63
2023-05-25T20:23:46.492Z,26.55
2023-05-25T20:26:13.522Z,29.02
2023-05-25T20:28:40.343Z,32.25
2023-05-25T20:31:08.032Z,23.70
2023-05-25T20:38:26.366Z,25.02
2023-05-25T20:40:53.045Z,27.23
2023-05-25T20:43:19.757Z,22.88
2023-05-25T20:45:46.751Z,20.52
2023-05-25T20:48:14.271Z,27.58
2023-05-25T20:50:41.040Z,24.77
2023-05-25T20:53:07.772Z,29.05
2023-05-25T20:55:34.503Z,34.15
2023-05-25T21:00:26.816Z,23.70
2023-05-25T21:02:53.678Z,30.08
2023-05-25T21:12:37.390Z,34.05
2023-05-25T21:15:04.507Z,29.02
2023-05-25T21:17:31.361Z,35.15
2023-05-25T21:19:58.108Z,21.48
2023-05-25T21:27:16.445Z,20.05
2023-05-25T21:35:11.274Z,28.55
2023-05-25T21:37:38.030Z,28.95
2023-05-25T21:40:04.854Z,27.13
2023-05-25T21:44:57.048Z,30.67
2023-05-25T21:47:23.932Z,29.23
2023-05-25T21:49:50.691Z,31.38
2023-05-25T21:52:20.332Z,27.10
2023-05-25T21:54:47.014Z,29.08
2023-05-25T21:57:13.747Z,28.90
2023-05-25T21:59:40.445Z,28.38
2023-05-25T22:02:07.190Z,30.67
2023-05-25T22:04:33.914Z,30.05
2023-05-25T22:07:00.787Z,27.65
2023-05-25T22:09:28.827Z,34.20
2023-05-25T22:14:21.031Z,35.53
2023-05-25T22:16:47.942Z,27.98
2023-05-25T22:19:15.152Z,31.83
2023-05-25T22:21:42.173Z,36.63
2023-05-25T22:24:09.385Z,34.65
2023-05-25T22:26:36.204Z,36.53
2023-05-25T22:29:02.947Z,27.15
2023-05-25T22:31:29.847Z,34.58
2023-05-25T22:33:56.644Z,30.75
2023-05-25T22:36:23.498Z,29.70
2023-05-25T22:38:50.298Z,27.63
2023-05-25T22:43:42.330Z,31.88
2023-05-25T22:46:09.708Z,29.83
2023-05-25T22:48:36.418Z,30.02
2023-05-25T22:51:03.440Z,28.98
2023-05-25T22:53:30.144Z,31.92
2023-05-25T22:55:56.820Z,32.25
2023-05-25T23:03:14.446Z,29.92
2023-05-25T23:08:06.804Z,29.95
2023-05-25T23:10:33.490Z,33.10
2023-05-25T23:15:25.618Z,35.38
2023-05-25T23:17:52.402Z,41.83
2023-05-25T23:20:19.228Z,47.05
2023-05-25T23:22:46.078Z,46.67
2023-05-25T23:25:12.805Z,45.88
2023-05-25T23:27:39.656Z,63.13
2023-05-25T23:30:06.641Z,45.88
2023-05-25T23:32:33.551Z,63.70
2023-05-25T23:37:25.663Z,54.13
2023-05-25T23:39:52.387Z,44.22
2023-05-25T23:42:19.145Z,54.70
2023-05-25T23:44:46.260Z,53.47
2023-05-25T23:47:12.989Z,60.80
2023-05-25T23:49:39.711Z,67.07
2023-05-25T23:52:06.722Z,60.80
2023-05-25T23:54:33.831Z,51.10
2023-05-25T23:59:25.999Z,56.20
